createdAt,value
2023-03-11T00:02:11.374Z,2.60
2023-03-11T00:04:38.187Z,2.60
2023-03-11T00:07:06.549Z,2.60
2023-03-11T00:09:34.239Z,2.60
2023-03-11T00:12:01.198Z,2.50
2023-03-11T00:14:28.034Z,2.50
2023-03-11T00:16:56.282Z,2.50
2023-03-11T00:19:23.178Z,2.40
2023-03-11T00:21:49.949Z,2.20
2023-03-11T00:24:16.724Z,2.20
2023-03-11T00:26:43.442Z,2.10
2023-03-11T00:29:10.165Z,2.10
2023-03-11T00:31:36.874Z,2.00
2023-03-11T00:34:05.030Z,2.00
2023-03-11T00:36:33.292Z,1.90
2023-03-11T00:39:01.585Z,1.90
2023-03-11T00:41:28.646Z,1.90
2023-03-11T00:43:55.372Z,1.80
2023-03-11T00:46:22.124Z,1.80
2023-03-11T00:48:50.524Z,1.80
2023-03-11T00:51:18.931Z,1.90
2023-03-11T00:53:46.308Z,1.90
2023-03-11T00:56:15.432Z,1.90
2023-03-11T00:58:44.390Z,1.90
2023-03-11T01:01:13.663Z,1.80
2023-03-11T01:03:41.042Z,1.90
2023-03-11T01:06:08.165Z,1.90
2023-03-11T01:08:37.166Z,1.90
2023-03-11T01:11:05.840Z,1.90
2023-03-11T01:13:33.851Z,1.90
2023-03-11T01:16:00.840Z,2.00
2023-03-11T01:18:27.750Z,2.00
2023-03-11T01:20:55.232Z,2.00
2023-03-11T01:23:22.285Z,1.90
2023-03-11T01:25:50.378Z,1.90
2023-03-11T01:28:17.184Z,1.80
2023-03-11T01:30:44.174Z,1.90
2023-03-11T01:33:15.303Z,1.80
2023-03-11T01:35:42.421Z,1.70
2023-03-11T01:38:09.674Z,1.70
2023-03-11T01:40:39.269Z,1.70
2023-03-11T01:43:39.481Z,1.70
2023-03-11T01:46:11.645Z,1.70
2023-03-11T01:48:38.450Z,1.70
2023-03-11T01:51:05.642Z,1.60
2023-03-11T01:53:32.831Z,1.60
2023-03-11T01:56:01.156Z,1.60
2023-03-11T01:58:33.988Z,1.50
2023-03-11T02:01:02.508Z,1.40
2023-03-11T02:03:31.371Z,1.50
2023-03-11T02:06:01.659Z,1.40
2023-03-11T02:08:28.610Z,1.30
2023-03-11T02:10:56.456Z,1.30
2023-03-11T02:13:23.694Z,1.40
2023-03-11T02:15:52.160Z,1.30
2023-03-11T02:18:19.449Z,1.30
2023-03-11T02:20:52.714Z,1.20
2023-03-11T02:23:24.777Z,1.10
2023-03-11T02:25:55.932Z,1.10
2023-03-11T02:28:25.558Z,1.00
2023-03-11T02:30:53.023Z,1.00
2023-03-11T02:33:20.099Z,1.00
2023-03-11T02:35:47.013Z,1.00
2023-03-11T02:38:13.861Z,1.10
2023-03-11T02:40:47.961Z,1.00
2023-03-11T02:43:15.816Z,1.00
2023-03-11T02:45:46.560Z,1.10
2023-03-11T02:48:14.446Z,1.00
2023-03-11T02:50:41.631Z,1.10
2023-03-11T02:53:08.456Z,1.00
2023-03-11T02:55:35.559Z,1.00
2023-03-11T02:58:02.300Z,1.00
2023-03-11T03:00:29.069Z,0.90
2023-03-11T03:02:57.134Z,0.90
2023-03-11T03:05:23.969Z,0.90
2023-03-11T03:07:51.536Z,0.90
2023-03-11T03:10:19.918Z,0.90
2023-03-11T03:12:46.797Z,0.80
2023-03-11T03:15:13.734Z,0.80
2023-03-11T03:17:40.496Z,0.80
2023-03-11T03:20:10.489Z,0.80
2023-03-11T03:22:37.648Z,0.80
2023-03-11T03:25:05.519Z,0.80
2023-03-11T03:27:33.076Z,0.80
2023-03-11T03:30:00.052Z,0.80
2023-03-11T03:32:26.831Z,0.80
2023-03-11T03:34:53.589Z,0.70
2023-03-11T03:37:21.692Z,0.70
2023-03-11T03:39:48.398Z,0.70
2023-03-11T03:42:15.138Z,0.60
2023-03-11T03:44:41.916Z,0.60
2023-03-11T03:47:08.623Z,0.60
2023-03-11T03:49:35.371Z,0.60
2023-03-11T03:52:02.110Z,0.60
2023-03-11T03:54:30.192Z,0.60
2023-03-11T03:56:57.768Z,0.50
2023-03-11T03:59:24.523Z,0.50
2023-03-11T04:01:51.329Z,0.50
2023-03-11T04:04:18.073Z,0.40
2023-03-11T04:06:44.788Z,0.50
2023-03-11T04:09:11.995Z,0.50
2023-03-11T04:11:40.089Z,0.50
2023-03-11T04:14:07.150Z,0.50
2023-03-11T04:16:33.990Z,0.40
2023-03-11T04:19:00.769Z,0.40
2023-03-11T04:21:27.609Z,0.30
2023-03-11T04:23:54.358Z,0.30
2023-03-11T04:26:21.102Z,0.30
2023-03-11T04:28:49.230Z,0.40
2023-03-11T04:31:16.058Z,0.30
2023-03-11T04:33:42.957Z,0.30
2023-03-11T04:36:11.390Z,0.30
2023-03-11T04:38:38.313Z,0.20
2023-03-11T04:41:06.529Z,0.20
2023-03-11T04:43:34.072Z,0.10
2023-03-11T04:46:02.211Z,0.10
2023-03-11T04:48:29.075Z,0.10
2023-03-11T04:50:55.916Z,0.00
2023-03-11T04:53:23.004Z,0.00
2023-03-11T04:55:49.754Z,0.00
2023-03-11T04:58:16.557Z,0.00
2023-03-11T05:00:43.312Z,0.00
2023-03-11T05:03:11.522Z,0.10
2023-03-11T05:05:38.379Z,0.20
2023-03-11T05:08:05.433Z,0.30
2023-03-11T05:10:32.360Z,0.40
2023-03-11T05:12:59.334Z,0.40
2023-03-11T05:15:26.244Z,0.50
2023-03-11T05:17:53.041Z,0.60
2023-03-11T05:20:21.151Z,0.60
2023-03-11T05:22:47.918Z,0.70
2023-03-11T05:25:14.689Z,0.70
2023-03-11T05:27:41.491Z,0.70
2023-03-11T05:30:09.230Z,0.80
2023-03-11T05:32:36.175Z,0.80
2023-03-11T05:35:03.319Z,0.80
2023-03-11T05:37:32.437Z,0.80
2023-03-11T05:39:59.222Z,0.80
2023-03-11T05:42:26.141Z,0.80
2023-03-11T05:44:52.916Z,0.80
2023-03-11T05:47:19.704Z,0.80
2023-03-11T05:49:47.786Z,0.80
2023-03-11T05:52:14.642Z,0.80
2023-03-11T05:54:43.003Z,0.70
2023-03-11T05:57:09.741Z,0.80
2023-03-11T05:59:36.592Z,0.70
2023-03-11T06:02:03.624Z,0.70
2023-03-11T06:04:30.568Z,0.70
2023-03-11T06:06:57.390Z,0.80
2023-03-11T06:09:24.252Z,0.80
2023-03-11T06:11:52.446Z,0.70
2023-03-11T06:14:19.203Z,0.80
2023-03-11T06:16:45.973Z,0.70
2023-03-11T06:19:12.844Z,0.70
2023-03-11T06:21:39.627Z,0.70
2023-03-11T06:24:06.931Z,0.70
2023-03-11T06:26:33.736Z,0.70
2023-03-11T06:29:01.895Z,0.70
2023-03-11T06:31:29.847Z,0.70
2023-03-11T06:33:56.907Z,0.70
2023-03-11T06:36:24.059Z,0.70
2023-03-11T06:38:51.808Z,0.70
2023-03-11T06:41:18.740Z,0.70
2023-03-11T06:43:45.508Z,0.70
2023-03-11T06:46:16.975Z,0.70
2023-03-11T06:48:44.238Z,0.70
2023-03-11T06:51:11.317Z,0.70
2023-03-11T06:53:38.459Z,0.80
2023-03-11T06:56:07.466Z,0.80
2023-03-11T06:58:36.040Z,0.80
2023-03-11T07:01:04.673Z,0.90
2023-03-11T07:03:32.937Z,0.90
2023-03-11T07:06:00.267Z,0.90
2023-03-11T07:08:27.653Z,0.90
2023-03-11T07:11:03.034Z,0.80
2023-03-11T07:13:29.837Z,0.70
2023-03-11T07:16:04.293Z,0.60
2023-03-11T07:18:33.008Z,0.60
2023-03-11T07:21:01.525Z,0.70
2023-03-11T07:23:28.484Z,0.80
2023-03-11T07:25:55.471Z,0.90
2023-03-11T07:28:22.408Z,0.90
2023-03-11T07:30:49.135Z,0.90
2023-03-11T07:33:16.236Z,0.80
2023-03-11T07:35:44.587Z,0.60
2023-03-11T07:38:11.418Z,0.50
2023-03-11T07:40:38.186Z,0.40
2023-03-11T07:43:04.931Z,0.30
2023-03-11T07:45:31.660Z,0.40
2023-03-11T07:47:58.516Z,0.40
2023-03-11T07:50:25.500Z,0.40
2023-03-11T07:52:53.612Z,0.50
2023-03-11T07:55:20.521Z,0.50
2023-03-11T07:57:47.908Z,0.50
2023-03-11T08:00:16.268Z,0.50
2023-03-11T08:02:43.054Z,0.60
2023-03-11T08:05:10.889Z,0.80
2023-03-11T08:07:37.600Z,0.90
2023-03-11T08:10:06.567Z,1.10
2023-03-11T08:12:33.373Z,1.30
2023-03-11T08:15:00.136Z,1.40
2023-03-11T08:17:26.904Z,1.60
2023-03-11T08:19:53.836Z,1.80
2023-03-11T08:22:20.586Z,2.00
2023-03-11T08:24:51.496Z,2.10
2023-03-11T08:27:19.781Z,2.20
2023-03-11T08:29:46.907Z,2.20
2023-03-11T08:32:13.710Z,2.00
2023-03-11T08:34:40.487Z,1.90
2023-03-11T08:37:07.395Z,1.90
2023-03-11T08:39:34.137Z,1.80
2023-03-11T08:42:01.391Z,1.80
2023-03-11T08:44:29.610Z,1.80
2023-03-11T08:46:56.386Z,2.00
2023-03-11T08:49:23.132Z,2.00
2023-03-11T08:51:50.000Z,2.00
2023-03-11T08:54:16.851Z,2.10
2023-03-11T08:56:43.707Z,2.10
2023-03-11T08:59:10.465Z,2.10
2023-03-11T09:01:38.607Z,2.00
2023-03-11T09:04:05.399Z,2.00
2023-03-11T09:06:32.276Z,1.90
2023-03-11T09:08:59.225Z,1.90
2023-03-11T09:11:26.197Z,2.00
2023-03-11T09:13:53.004Z,2.10
2023-03-11T09:16:22.064Z,2.20
2023-03-11T09:18:50.603Z,2.30
2023-03-11T09:21:17.755Z,2.50
2023-03-11T09:23:44.750Z,2.60
2023-03-11T09:26:11.612Z,2.60
2023-03-11T09:28:38.369Z,2.60
2023-03-11T09:31:05.776Z,2.70
2023-03-11T09:33:36.065Z,2.90
2023-03-11T09:36:04.801Z,3.00
2023-03-11T09:38:31.601Z,3.20
2023-03-11T09:41:02.142Z,3.30
2023-03-11T09:43:45.708Z,3.40
2023-03-11T09:46:42.159Z,3.30
2023-03-11T09:49:19.811Z,3.20
2023-03-11T09:51:53.587Z,3.00
2023-03-11T09:54:20.585Z,2.80
2023-03-11T09:56:47.448Z,2.60
2023-03-11T09:59:19.203Z,2.50
2023-03-11T10:01:48.556Z,2.60
2023-03-11T10:04:20.457Z,2.70
2023-03-11T10:06:48.621Z,2.90
2023-03-11T10:09:29.942Z,3.00
2023-03-11T10:12:09.180Z,3.20
2023-03-11T10:14:47.230Z,3.40
2023-03-11T10:17:36.604Z,3.30
2023-03-11T10:20:09.630Z,3.40
2023-03-11T10:22:46.703Z,3.60
2023-03-11T10:25:15.928Z,3.50
2023-03-11T10:27:48.863Z,3.50
2023-03-11T10:30:24.558Z,3.50
2023-03-11T10:32:56.697Z,3.30
2023-03-11T10:35:27.280Z,3.30
2023-03-11T10:38:00.748Z,3.20
2023-03-11T10:40:31.434Z,3.00
2023-03-11T10:43:03.253Z,3.10
2023-03-11T10:45:38.377Z,3.30
2023-03-11T10:48:09.943Z,3.50
2023-03-11T10:50:36.980Z,3.90
2023-03-11T10:53:10.372Z,4.10
2023-03-11T10:55:46.578Z,4.30
2023-03-11T10:58:15.364Z,4.70
2023-03-11T11:00:42.173Z,5.00
2023-03-11T11:03:19.046Z,5.20
2023-03-11T11:05:58.180Z,5.40
2023-03-11T11:08:26.748Z,5.10
2023-03-11T11:10:55.195Z,5.20
2023-03-11T11:13:23.088Z,5.50
2023-03-11T11:15:58.790Z,5.60
2023-03-11T11:18:28.644Z,5.40
2023-03-11T11:21:01.869Z,5.40
2023-03-11T11:23:37.033Z,5.10
2023-03-11T11:26:06.528Z,4.90
2023-03-11T11:28:33.952Z,4.60
2023-03-11T11:31:02.656Z,4.60
2023-03-11T11:33:31.439Z,4.70
2023-03-11T11:36:01.481Z,4.80
2023-03-11T11:38:30.456Z,4.80
2023-03-11T11:41:02.235Z,4.50
2023-03-11T11:43:48.080Z,4.40
2023-03-11T11:46:20.990Z,4.20
2023-03-11T11:48:54.809Z,4.00
2023-03-11T11:51:26.258Z,4.00
2023-03-11T11:53:59.505Z,4.00
2023-03-11T11:56:28.028Z,3.90
2023-03-11T11:58:54.901Z,3.90
2023-03-11T12:01:30.710Z,3.80
2023-03-11T12:04:25.535Z,3.80
2023-03-11T12:07:06.503Z,4.00
2023-03-11T12:09:43.271Z,3.90
2023-03-11T12:12:21.158Z,4.00
2023-03-11T12:14:55.535Z,4.00
2023-03-11T12:17:24.042Z,3.90
2023-03-11T12:19:55.805Z,3.80
2023-03-11T12:22:59.740Z,3.80
2023-03-11T12:25:35.521Z,3.70
2023-03-11T12:28:15.531Z,3.80
2023-03-11T12:30:45.513Z,3.80
2023-03-11T12:33:17.110Z,4.00
2023-03-11T12:35:50.401Z,4.00
2023-03-11T12:38:20.864Z,4.00
2023-03-11T12:41:06.445Z,4.00
2023-03-11T12:44:00.757Z,4.10
2023-03-11T12:47:03.959Z,4.20
2023-03-11T12:49:31.923Z,4.30
2023-03-11T12:52:17.519Z,4.30
2023-03-11T12:54:45.928Z,4.40
2023-03-11T12:57:34.128Z,4.50
2023-03-11T13:00:19.988Z,5.20
2023-03-11T13:03:16.277Z,6.10
2023-03-11T13:05:54.442Z,6.90
2023-03-11T13:08:23.088Z,7.10
2023-03-11T13:10:51.051Z,7.30
2023-03-11T13:13:39.653Z,7.70
2023-03-11T13:16:42.001Z,7.90
2023-03-11T13:19:35.321Z,8.60
2023-03-11T13:22:04.356Z,8.70
2023-03-11T13:24:48.815Z,9.20
2023-03-11T13:27:22.848Z,9.70
2023-03-11T13:29:59.811Z,10.10
2023-03-11T13:32:41.496Z,10.90
2023-03-11T13:35:26.815Z,11.10
2023-03-11T13:38:20.620Z,11.30
2023-03-11T13:40:47.647Z,11.70
2023-03-11T13:43:18.919Z,12.20
2023-03-11T13:45:51.984Z,12.80
2023-03-11T13:48:25.966Z,13.40
2023-03-11T13:50:56.790Z,14.10
2023-03-11T13:53:29.605Z,15.00
2023-03-11T13:55:56.568Z,15.70
2023-03-11T13:58:25.122Z,15.40
2023-03-11T14:00:53.916Z,15.10
2023-03-11T14:03:23.940Z,15.00
2023-03-11T14:05:57.797Z,14.60
2023-03-11T14:08:26.902Z,15.20
2023-03-11T14:10:54.728Z,15.90
2023-03-11T14:13:23.227Z,15.90
2023-03-11T14:15:58.981Z,15.70
2023-03-11T14:18:35.898Z,16.00
2023-03-11T14:21:04.477Z,16.20
2023-03-11T14:23:34.839Z,16.20
2023-03-11T14:26:04.996Z,17.10
2023-03-11T14:28:36.770Z,18.10
2023-03-11T14:31:04.420Z,19.00
2023-03-11T14:33:32.761Z,18.80
2023-03-11T14:36:02.435Z,18.30
2023-03-11T14:38:31.806Z,17.50
2023-03-11T14:41:00.704Z,16.90
2023-03-11T14:43:30.497Z,16.60
2023-03-11T14:45:57.827Z,16.50
2023-03-11T14:48:29.374Z,16.70
2023-03-11T14:51:00.424Z,16.40
2023-03-11T14:53:32.870Z,17.30
2023-03-11T14:56:02.534Z,17.50
2023-03-11T14:58:32.869Z,16.70
2023-03-11T15:01:06.774Z,16.90
2023-03-11T15:03:34.514Z,17.00
2023-03-11T15:06:05.975Z,15.90
2023-03-11T15:08:37.194Z,16.00
2023-03-11T15:11:07.294Z,15.50
2023-03-11T15:13:35.430Z,16.10
2023-03-11T15:16:04.580Z,17.60
2023-03-11T15:18:34.285Z,19.10
2023-03-11T15:21:06.587Z,20.00
2023-03-11T15:23:35.556Z,20.30
2023-03-11T15:26:03.220Z,19.60
2023-03-11T15:28:31.969Z,18.70
2023-03-11T15:31:36.019Z,18.00
2023-03-11T15:34:23.007Z,17.10
2023-03-11T15:37:16.919Z,17.80
2023-03-11T15:39:47.164Z,18.10
2023-03-11T15:42:19.175Z,18.00
2023-03-11T15:45:08.042Z,18.90
2023-03-11T15:47:34.901Z,18.80
2023-03-11T15:50:23.451Z,17.20
2023-03-11T15:52:53.968Z,15.20
2023-03-11T15:55:21.277Z,13.20
2023-03-11T15:57:49.141Z,12.00
2023-03-11T16:00:18.864Z,11.80
2023-03-11T16:02:46.156Z,11.50
2023-03-11T16:05:15.139Z,10.70
2023-03-11T16:07:41.970Z,9.70
2023-03-11T16:10:13.000Z,8.80
2023-03-11T16:12:40.051Z,8.20
2023-03-11T16:15:15.990Z,7.70
2023-03-11T16:17:49.664Z,7.40
2023-03-11T16:20:17.211Z,7.10
2023-03-11T16:22:44.304Z,6.80
2023-03-11T16:25:20.898Z,6.50
2023-03-11T16:27:48.688Z,6.20
2023-03-11T16:30:15.647Z,5.90
2023-03-11T16:32:42.591Z,5.70
2023-03-11T16:35:10.253Z,5.50
2023-03-11T16:37:37.369Z,5.40
2023-03-11T16:40:04.834Z,5.30
2023-03-11T16:42:33.248Z,5.20
2023-03-11T16:45:00.646Z,5.00
2023-03-11T16:47:28.023Z,4.90
2023-03-11T16:49:54.772Z,4.70
2023-03-11T16:52:21.777Z,4.60
2023-03-11T16:54:48.804Z,4.40
2023-03-11T16:57:15.665Z,4.40
2023-03-11T16:59:43.814Z,4.30
2023-03-11T17:02:11.205Z,4.30
2023-03-11T17:04:38.290Z,4.20
2023-03-11T17:07:05.789Z,4.20
2023-03-11T17:09:33.012Z,4.20
2023-03-11T17:11:59.777Z,4.10
2023-03-11T17:14:26.515Z,4.10
2023-03-11T17:16:54.720Z,4.10
2023-03-11T17:19:21.656Z,4.00
2023-03-11T17:21:48.380Z,3.90
2023-03-11T17:24:15.122Z,3.90
2023-03-11T17:26:41.940Z,3.90
2023-03-11T17:29:08.845Z,3.80
2023-03-11T17:31:35.614Z,3.70
2023-03-11T17:34:03.792Z,3.70
2023-03-11T17:36:30.524Z,3.70
2023-03-11T17:38:57.306Z,3.70
2023-03-11T17:41:24.245Z,3.70
2023-03-11T17:43:51.680Z,3.70
2023-03-11T17:46:20.275Z,3.70
2023-03-11T17:48:48.373Z,3.70
2023-03-11T17:51:19.684Z,3.70
2023-03-11T17:53:47.823Z,3.70
2023-03-11T17:56:16.226Z,3.60
2023-03-11T17:58:43.464Z,3.50
2023-03-11T18:01:14.064Z,3.50
2023-03-11T18:03:41.263Z,3.40
2023-03-11T18:06:09.183Z,3.40
2023-03-11T18:08:37.632Z,3.30
2023-03-11T18:11:06.654Z,3.30
2023-03-11T18:13:34.690Z,3.30
2023-03-11T18:16:03.623Z,3.30
2023-03-11T18:18:31.772Z,3.20
2023-03-11T18:21:01.359Z,3.30
2023-03-11T18:23:28.294Z,3.20
2023-03-11T18:25:56.689Z,3.30
2023-03-11T18:28:23.485Z,3.20
2023-03-11T18:30:50.336Z,3.20
2023-03-11T18:33:17.330Z,3.20
2023-03-11T18:35:44.207Z,3.20
2023-03-11T18:38:11.102Z,3.10
2023-03-11T18:40:38.063Z,3.00
2023-03-11T18:43:06.329Z,2.90
2023-03-11T18:45:33.161Z,2.80
2023-03-11T18:48:00.585Z,2.70
2023-03-11T18:50:28.702Z,2.60
2023-03-11T18:52:55.485Z,2.50
2023-03-11T18:55:22.264Z,2.40
2023-03-11T18:57:49.023Z,2.40
2023-03-11T19:00:17.846Z,2.40
2023-03-11T19:02:44.649Z,2.30
2023-03-11T19:05:11.800Z,2.20
2023-03-11T19:07:38.609Z,2.20
2023-03-11T19:10:07.143Z,2.10
2023-03-11T19:12:33.889Z,2.10
2023-03-11T19:15:00.788Z,2.10
2023-03-11T19:17:28.949Z,2.10
2023-03-11T19:19:55.821Z,2.20
2023-03-11T19:22:22.653Z,2.20
2023-03-11T19:24:49.443Z,2.20
2023-03-11T19:27:16.393Z,2.20
2023-03-11T19:29:43.293Z,2.10
2023-03-11T19:32:10.132Z,2.10
2023-03-11T19:34:38.238Z,2.10
2023-03-11T19:37:04.999Z,2.10
2023-03-11T19:39:31.758Z,2.10
2023-03-11T19:41:58.530Z,2.20
2023-03-11T19:44:25.311Z,2.20
2023-03-11T19:46:52.055Z,2.30
2023-03-11T19:49:18.883Z,2.40
2023-03-11T19:51:50.409Z,2.50
2023-03-11T19:54:17.741Z,2.50
2023-03-11T19:56:45.825Z,2.50
2023-03-11T19:59:12.687Z,2.50
2023-03-11T20:01:39.478Z,2.40
2023-03-11T20:04:06.391Z,2.20
2023-03-11T20:06:33.228Z,2.10
2023-03-11T20:09:01.413Z,2.00
2023-03-11T20:11:28.169Z,1.80
2023-03-11T20:13:54.974Z,1.70
2023-03-11T20:16:21.862Z,1.70
2023-03-11T20:18:49.926Z,1.70
2023-03-11T20:21:17.032Z,1.70
2023-03-11T20:23:43.890Z,1.70
2023-03-11T20:26:13.801Z,1.60
2023-03-11T20:28:40.780Z,1.60
2023-03-11T20:31:09.837Z,1.50
2023-03-11T20:33:37.625Z,1.50
2023-03-11T20:36:06.565Z,1.40
2023-03-11T20:38:33.577Z,1.30
2023-03-11T20:41:00.442Z,1.30
2023-03-11T20:43:28.597Z,1.10
2023-03-11T20:45:55.369Z,1.00
2023-03-11T20:48:22.151Z,1.00
2023-03-11T20:50:49.003Z,0.90
2023-03-11T20:53:15.963Z,0.80
2023-03-11T20:55:42.975Z,0.80
2023-03-11T20:58:09.897Z,0.70
2023-03-11T21:00:38.013Z,0.70
2023-03-11T21:03:04.899Z,0.70
2023-03-11T21:05:35.907Z,0.60
2023-03-11T21:08:02.855Z,0.60
2023-03-11T21:10:29.912Z,0.70
2023-03-11T21:12:57.005Z,0.70
2023-03-11T21:15:24.117Z,0.70
2023-03-11T21:17:52.342Z,0.70
2023-03-11T21:20:19.366Z,0.80
2023-03-11T21:22:46.230Z,0.80
2023-03-11T21:25:12.993Z,0.80
2023-03-11T21:27:39.864Z,0.80
2023-03-11T21:30:08.127Z,0.80
2023-03-11T21:32:35.084Z,0.80
2023-03-11T21:35:04.025Z,0.80
2023-03-11T21:37:30.861Z,0.80
2023-03-11T21:39:57.785Z,0.70
2023-03-11T21:42:24.586Z,0.70
2023-03-11T21:44:51.701Z,0.60
2023-03-11T21:47:19.661Z,0.60
2023-03-11T21:49:49.546Z,0.60
2023-03-11T21:52:17.781Z,0.50
2023-03-11T21:54:44.612Z,0.50
2023-03-11T21:57:11.622Z,0.50
2023-03-11T21:59:38.378Z,0.50
2023-03-11T22:02:05.280Z,0.50
2023-03-11T22:04:32.315Z,0.50
2023-03-11T22:06:59.447Z,0.40
2023-03-11T22:09:27.655Z,0.40
2023-03-11T22:11:54.779Z,0.30
2023-03-11T22:14:21.789Z,0.30
2023-03-11T22:16:48.838Z,0.20
2023-03-11T22:19:15.721Z,0.20
2023-03-11T22:21:42.819Z,0.20
2023-03-11T22:24:10.084Z,0.20
2023-03-11T22:26:38.462Z,0.20
2023-03-11T22:29:08.620Z,0.30
2023-03-11T22:31:35.616Z,0.30
2023-03-11T22:34:02.460Z,0.30
2023-03-11T22:36:29.197Z,0.30
2023-03-11T22:38:56.302Z,0.30
2023-03-11T22:41:23.166Z,0.30
2023-03-11T22:43:51.313Z,0.30
2023-03-11T22:46:18.182Z,0.30
2023-03-11T22:48:45.111Z,0.30
2023-03-11T22:51:11.965Z,0.30
2023-03-11T22:53:39.093Z,0.20
2023-03-11T22:56:10.596Z,0.10
2023-03-11T22:58:37.566Z,0.10
2023-03-11T23:01:06.127Z,0.10
2023-03-11T23:03:34.180Z,0.00
2023-03-11T23:06:02.301Z,0.00
2023-03-11T23:08:29.182Z,0.00
2023-03-11T23:10:56.455Z,0.00
2023-03-11T23:13:23.258Z,-0.10
2023-03-11T23:15:50.030Z,-0.10
2023-03-11T23:18:18.260Z,-0.20
2023-03-11T23:20:45.369Z,-0.20
2023-03-11T23:23:12.749Z,0.00
2023-03-11T23:25:40.649Z,0.10
2023-03-11T23:28:07.998Z,0.20
2023-03-11T23:30:35.163Z,0.30
2023-03-11T23:33:02.094Z,0.40
2023-03-11T23:35:30.524Z,0.40
2023-03-11T23:37:57.303Z,0.40
2023-03-11T23:40:24.454Z,0.40
2023-03-11T23:42:51.479Z,0.40
2023-03-11T23:45:19.374Z,0.40
2023-03-11T23:47:46.185Z,0.40
2023-03-11T23:50:12.998Z,0.40
2023-03-11T23:52:41.417Z,0.40
2023-03-11T23:55:09.182Z,0.30
2023-03-11T23:57:36.521Z,0.10
